createdAt,value
2019-05-07T00:02:10.577Z,98519.33
2019-05-07T00:04:40.032Z,98521.85
2019-05-07T00:07:09.554Z,98524.86
2019-05-07T00:09:39.105Z,98527.39
2019-05-07T00:12:08.600Z,98525.09
2019-05-07T00:14:38.388Z,98538.53
2019-05-07T00:17:07.918Z,98535.68
2019-05-07T00:19:37.300Z,98545.63
2019-05-07T00:22:06.699Z,98542.89
2019-05-07T00:24:36.235Z,98557.52
2019-05-07T00:27:05.734Z,98553.66
2019-05-07T00:29:35.244Z,98554.83
2019-05-07T00:32:04.662Z,98555.19
2019-05-07T00:34:39.464Z,98563.59
2019-05-07T00:37:32.254Z,98570.92
2019-05-07T00:40:22.439Z,98569.85
2019-05-07T00:43:22.791Z,98578.73
2019-05-07T00:45:58.595Z,98580.81
2019-05-07T00:48:28.141Z,98586.58
2019-05-07T00:51:16.474Z,98588.56
2019-05-07T00:53:45.912Z,98594.61
2019-05-07T00:56:15.505Z,98608.25
2019-05-07T00:58:44.909Z,98612.56
2019-05-07T01:01:14.451Z,98605.05
2019-05-07T01:03:43.966Z,98608.28
2019-05-07T01:06:13.464Z,98609.72
2019-05-07T01:08:43.155Z,98597.46
2019-05-07T01:11:13.290Z,98608.40
2019-05-07T01:13:43.312Z,98614.24
2019-05-07T01:16:13.060Z,98610.62
2019-05-07T01:18:42.455Z,98615.28
2019-05-07T01:21:13.209Z,98608.56
2019-05-07T01:23:42.994Z,98603.75
2019-05-07T01:26:12.566Z,98608.70
2019-05-07T01:29:02.814Z,98606.17
2019-05-07T01:31:42.972Z,98609.19
2019-05-07T01:34:40.095Z,98609.52
2019-05-07T01:37:09.492Z,98617.70
2019-05-07T01:39:38.993Z,98619.14
2019-05-07T01:42:08.735Z,98626.59
2019-05-07T01:44:38.143Z,98609.77
2019-05-07T01:47:07.647Z,98619.75
2019-05-07T01:49:37.191Z,98616.16
2019-05-07T01:52:06.646Z,98621.46
2019-05-07T01:54:36.036Z,98616.66
2019-05-07T01:57:05.576Z,98613.05
2019-05-07T01:59:35.078Z,98615.33
2019-05-07T02:02:12.166Z,98626.48
2019-05-07T02:04:52.214Z,98624.22
2019-05-07T02:07:33.399Z,98620.98
2019-05-07T02:10:11.977Z,98632.17
2019-05-07T02:12:42.552Z,98628.32
2019-05-07T02:15:12.210Z,98637.09
2019-05-07T02:17:43.002Z,98648.36
2019-05-07T02:20:13.279Z,98655.56
2019-05-07T02:22:42.932Z,98652.37
2019-05-07T02:25:12.793Z,98654.65
2019-05-07T02:27:42.338Z,98659.31
2019-05-07T02:30:14.752Z,98653.18
2019-05-07T02:32:43.559Z,98660.63
2019-05-07T02:35:13.830Z,98662.20
2019-05-07T02:37:55.478Z,98669.33
2019-05-07T02:40:25.881Z,98668.33
2019-05-07T02:42:55.368Z,98676.36
2019-05-07T02:45:46.701Z,98680.25
2019-05-07T02:48:18.425Z,98679.05
2019-05-07T02:50:56.778Z,98686.59
2019-05-07T02:53:33.774Z,98682.11
2019-05-07T02:56:03.809Z,98690.41
2019-05-07T02:58:33.404Z,98690.41
2019-05-07T03:01:04.721Z,98691.54
2019-05-07T03:03:34.371Z,98694.39
2019-05-07T03:06:03.787Z,98697.25
2019-05-07T03:08:33.456Z,98695.19
2019-05-07T03:11:03.632Z,98695.00
2019-05-07T03:13:33.901Z,98696.27
2019-05-07T03:16:04.010Z,98701.19
2019-05-07T03:18:34.016Z,98701.47
2019-05-07T03:21:12.767Z,98694.52
2019-05-07T03:23:49.329Z,98708.09
2019-05-07T03:26:23.288Z,98714.36
2019-05-07T03:28:54.570Z,98720.19
2019-05-07T03:31:40.375Z,98712.85
2019-05-07T03:34:25.702Z,98719.45
2019-05-07T03:36:57.194Z,98717.55
2019-05-07T03:39:27.943Z,98728.69
2019-05-07T03:41:57.327Z,98731.99
2019-05-07T03:44:48.558Z,98727.47
2019-05-07T03:47:33.212Z,98723.52
2019-05-07T03:50:03.351Z,98732.58
2019-05-07T03:52:33.641Z,98743.03
2019-05-07T03:55:03.949Z,98734.44
2019-05-07T03:57:33.830Z,98742.36
2019-05-07T04:00:04.363Z,98740.12
2019-05-07T04:02:34.038Z,98750.00
2019-05-07T04:05:04.455Z,98751.96
2019-05-07T04:07:34.059Z,98756.22
2019-05-07T04:10:04.575Z,98755.33
2019-05-07T04:12:34.472Z,98759.02
2019-05-07T04:15:05.767Z,98754.43
2019-05-07T04:17:35.254Z,98769.69
2019-05-07T04:20:04.937Z,98764.20
2019-05-07T04:22:34.965Z,98774.48
2019-05-07T04:25:24.371Z,98768.42
2019-05-07T04:28:03.821Z,98762.66
2019-05-07T04:30:34.031Z,98768.03
2019-05-07T04:33:05.793Z,98775.74
2019-05-07T04:35:43.646Z,98760.11
2019-05-07T04:38:13.930Z,98774.80
2019-05-07T04:40:43.845Z,98771.36
2019-05-07T04:43:15.958Z,98756.06
2019-05-07T04:45:45.460Z,98773.80
2019-05-07T04:48:15.020Z,98770.78
2019-05-07T04:50:47.651Z,98770.59
2019-05-07T04:53:17.259Z,98776.73
2019-05-07T04:55:46.738Z,98778.67
2019-05-07T04:58:16.284Z,98775.76
2019-05-07T05:00:45.701Z,98774.05
2019-05-07T05:03:23.761Z,98790.11
2019-05-07T05:05:53.711Z,98775.30
2019-05-07T05:08:23.670Z,98778.74
2019-05-07T05:10:54.043Z,98787.02
2019-05-07T05:13:24.254Z,98788.67
2019-05-07T05:15:53.695Z,98791.83
2019-05-07T05:18:23.643Z,98793.66
2019-05-07T05:21:16.044Z,98797.48
2019-05-07T05:24:12.647Z,98802.39
2019-05-07T05:26:44.567Z,98803.25
2019-05-07T05:29:13.941Z,98802.53
2019-05-07T05:31:43.472Z,98810.60
2019-05-07T05:34:13.292Z,98810.66
2019-05-07T05:36:42.775Z,98818.63
2019-05-07T05:39:13.236Z,98817.79
2019-05-07T05:41:44.899Z,98827.02
2019-05-07T05:44:25.369Z,98819.95
2019-05-07T05:46:54.873Z,98806.31
2019-05-07T05:49:24.373Z,98815.17
2019-05-07T05:52:07.379Z,98819.37
2019-05-07T05:54:50.053Z,98830.16
2019-05-07T05:57:45.713Z,98832.69
2019-05-07T06:00:49.908Z,98828.05
2019-05-07T06:03:51.983Z,98834.37
2019-05-07T06:06:32.871Z,98831.53
2019-05-07T06:09:33.433Z,98835.05
2019-05-07T06:12:32.723Z,98838.91
2019-05-07T06:15:07.488Z,98834.30
2019-05-07T06:17:54.231Z,98844.86
2019-05-07T06:20:54.998Z,98831.53
2019-05-07T06:23:46.594Z,98831.84
2019-05-07T06:26:16.056Z,98833.83
2019-05-07T06:28:45.642Z,98831.98
2019-05-07T06:31:15.029Z,98826.27
2019-05-07T06:33:44.436Z,98831.66
2019-05-07T06:36:13.917Z,98830.06
2019-05-07T06:38:49.387Z,98845.73
2019-05-07T06:41:37.703Z,98846.84
2019-05-07T06:44:12.681Z,98849.91
2019-05-07T06:46:42.287Z,98845.77
2019-05-07T06:49:12.684Z,98837.17
2019-05-07T06:51:42.197Z,98842.34
2019-05-07T06:54:12.960Z,98839.86
2019-05-07T06:56:42.558Z,98836.61
2019-05-07T06:59:17.905Z,98834.76
2019-05-07T07:02:18.347Z,98837.69
2019-05-07T07:05:18.136Z,98854.38
2019-05-07T07:08:09.434Z,98841.75
2019-05-07T07:10:56.598Z,98851.19
2019-05-07T07:13:27.339Z,98851.07
2019-05-07T07:15:56.890Z,98843.95
2019-05-07T07:18:26.323Z,98855.80
2019-05-07T07:20:56.074Z,98847.51
2019-05-07T07:23:25.635Z,98832.06
2019-05-07T07:25:55.216Z,98847.80
2019-05-07T07:28:24.657Z,98837.66
2019-05-07T07:31:23.378Z,98856.47
2019-05-07T07:33:58.206Z,98838.23
2019-05-07T07:36:32.062Z,98858.02
2019-05-07T07:39:02.066Z,98852.64
2019-05-07T07:41:42.162Z,98849.86
2019-05-07T07:44:13.323Z,98852.43
2019-05-07T07:46:43.050Z,98858.36
2019-05-07T07:49:15.155Z,98871.88
2019-05-07T07:51:45.651Z,98862.59
2019-05-07T07:54:14.795Z,98858.14
2019-05-07T07:57:03.163Z,98852.25
2019-05-07T08:00:07.074Z,98848.88
2019-05-07T08:02:42.544Z,98855.52
2019-05-07T08:05:14.893Z,98861.61
2019-05-07T08:07:44.352Z,98858.80
2019-05-07T08:10:13.991Z,98858.95
2019-05-07T08:12:43.512Z,98851.69
2019-05-07T08:15:20.344Z,98863.17
2019-05-07T08:17:45.201Z,98872.84
2019-05-07T08:20:15.332Z,98863.25
2019-05-07T08:22:44.933Z,98870.03
2019-05-07T08:25:14.977Z,98872.36
2019-05-07T08:27:44.377Z,98875.86
2019-05-07T08:30:18.422Z,98869.09
2019-05-07T08:33:02.146Z,98881.00
2019-05-07T08:35:41.975Z,98884.00
2019-05-07T08:38:12.777Z,98864.98
2019-05-07T08:40:42.439Z,98880.20
2019-05-07T08:43:12.554Z,98877.79
2019-05-07T08:46:02.572Z,98868.13
2019-05-07T08:48:36.013Z,98879.81
2019-05-07T08:51:05.404Z,98878.42
2019-05-07T08:53:34.795Z,98870.68
2019-05-07T08:56:04.443Z,98871.58
2019-05-07T08:58:34.209Z,98859.84
2019-05-07T09:01:03.715Z,98870.48
2019-05-07T09:03:45.292Z,98855.98
2019-05-07T09:06:17.641Z,98876.41
2019-05-07T09:08:47.103Z,98865.64
2019-05-07T09:11:16.525Z,98873.98
2019-05-07T09:13:46.022Z,98853.10
2019-05-07T09:16:15.413Z,98861.38
2019-05-07T09:18:44.833Z,98846.12
2019-05-07T09:21:14.326Z,98858.80
2019-05-07T09:23:43.810Z,98853.53
2019-05-07T09:26:15.120Z,98845.25
2019-05-07T09:28:52.436Z,98881.34
2019-05-07T09:31:35.762Z,98855.93
2019-05-07T09:34:05.357Z,98855.97
2019-05-07T09:36:42.455Z,98848.06
2019-05-07T09:39:12.157Z,98859.83
2019-05-07T09:41:41.838Z,98844.22
2019-05-07T09:44:11.916Z,98874.95
2019-05-07T09:46:43.056Z,98850.07
2019-05-07T09:49:12.609Z,98877.35
2019-05-07T09:51:42.690Z,98853.11
2019-05-07T09:54:12.714Z,98863.18
2019-05-07T09:56:42.377Z,98859.81
2019-05-07T09:59:12.575Z,98864.08
2019-05-07T10:01:42.349Z,98858.27
2019-05-07T10:04:11.946Z,98864.71
2019-05-07T10:06:42.458Z,98852.30
2019-05-07T10:09:12.130Z,98854.69
2019-05-07T10:11:48.014Z,98850.42
2019-05-07T10:14:17.636Z,98857.13
2019-05-07T10:17:08.999Z,98864.14
2019-05-07T10:19:38.489Z,98859.38
2019-05-07T10:22:08.104Z,98873.69
2019-05-07T10:24:37.872Z,98877.89
2019-05-07T10:27:07.401Z,98869.00
2019-05-07T10:29:37.300Z,98870.58
2019-05-07T10:32:06.841Z,98889.06
2019-05-07T10:34:36.235Z,98877.99
2019-05-07T10:37:05.858Z,98862.20
2019-05-07T10:39:36.346Z,98874.91
2019-05-07T10:42:06.064Z,98864.53
2019-05-07T10:44:43.301Z,98889.74
2019-05-07T10:47:30.689Z,98879.11
2019-05-07T10:50:33.048Z,98875.59
2019-05-07T10:52:52.836Z,98889.25
2019-05-07T10:55:22.451Z,98893.80
2019-05-07T10:57:52.895Z,98897.81
2019-05-07T11:00:25.800Z,98892.83
2019-05-07T11:02:55.216Z,98895.01
2019-05-07T11:05:24.627Z,98894.52
2019-05-07T11:07:54.129Z,98890.67
2019-05-07T11:10:23.824Z,98897.95
2019-05-07T11:12:53.235Z,98904.18
2019-05-07T11:15:22.807Z,98915.59
2019-05-07T11:18:12.627Z,98895.97
2019-05-07T11:20:49.295Z,98901.02
2019-05-07T11:23:13.424Z,98909.09
2019-05-07T11:25:42.937Z,98900.70
2019-05-07T11:28:12.564Z,98904.69
2019-05-07T11:30:43.939Z,98904.09
2019-05-07T11:33:13.585Z,98892.77
2019-05-07T11:35:43.214Z,98911.36
2019-05-07T11:38:20.806Z,98914.13
2019-05-07T11:40:43.792Z,98905.72
2019-05-07T11:43:53.919Z,98916.81
2019-05-07T11:46:44.468Z,98914.00
2019-05-07T11:49:48.054Z,98919.53
2019-05-07T11:52:23.380Z,98929.02
2019-05-07T11:54:52.844Z,98929.70
2019-05-07T11:57:22.258Z,98925.61
2019-05-07T11:59:54.352Z,98922.23
2019-05-07T12:02:23.009Z,98917.30
2019-05-07T12:04:52.729Z,98938.44
2019-05-07T12:07:22.512Z,98934.59
2019-05-07T12:09:52.674Z,98918.41
2019-05-07T12:12:22.320Z,98961.38
2019-05-07T12:14:51.977Z,98931.69
2019-05-07T12:17:22.385Z,98947.94
2019-05-07T12:19:52.651Z,98944.66
2019-05-07T12:22:39.726Z,98948.77
2019-05-07T12:25:09.301Z,98954.66
2019-05-07T12:27:38.730Z,98953.53
2019-05-07T12:30:12.070Z,98967.67
2019-05-07T12:33:03.153Z,98941.91
2019-05-07T12:35:32.624Z,98947.59
2019-05-07T12:38:02.218Z,98961.69
2019-05-07T12:40:32.584Z,98950.59
2019-05-07T12:43:02.194Z,98958.06
2019-05-07T12:45:31.744Z,98988.16
2019-05-07T12:48:02.402Z,98963.48
2019-05-07T12:50:32.287Z,98964.94
2019-05-07T12:53:12.330Z,98962.28
2019-05-07T12:55:47.779Z,98958.06
2019-05-07T12:58:17.277Z,98980.75
2019-05-07T13:01:01.078Z,98975.89
2019-05-07T13:03:34.810Z,98978.81
2019-05-07T13:06:04.879Z,98981.59
2019-05-07T13:08:34.429Z,98979.91
2019-05-07T13:11:03.912Z,98988.80
2019-05-07T13:13:33.370Z,98996.38
2019-05-07T13:16:03.146Z,98988.17
2019-05-07T13:18:32.684Z,98988.05
2019-05-07T13:21:02.574Z,98998.11
2019-05-07T13:23:32.149Z,99017.74
2019-05-07T13:26:02.648Z,99017.65
2019-05-07T13:28:32.128Z,99028.89
2019-05-07T13:31:02.365Z,99011.95
2019-05-07T13:33:34.537Z,99031.05
2019-05-07T13:36:04.713Z,99030.48
2019-05-07T13:38:52.814Z,99029.14
2019-05-07T13:41:56.840Z,99029.51
2019-05-07T13:44:56.060Z,99030.33
2019-05-07T13:47:36.982Z,99050.35
2019-05-07T13:50:08.236Z,99048.19
2019-05-07T13:52:37.730Z,99057.23
2019-05-07T13:55:07.976Z,99062.21
2019-05-07T13:57:37.538Z,99067.36
2019-05-07T14:00:12.902Z,99043.42
2019-05-07T14:02:42.409Z,99052.55
2019-05-07T14:05:14.096Z,99051.22
2019-05-07T14:07:44.012Z,99061.50
2019-05-07T14:10:14.231Z,99061.14
2019-05-07T14:12:43.913Z,99056.45
2019-05-07T14:15:13.708Z,99060.59
2019-05-07T14:17:43.267Z,99066.56
2019-05-07T14:20:13.123Z,99093.87
2019-05-07T14:22:42.697Z,99091.14
2019-05-07T14:25:12.427Z,99084.89
2019-05-07T14:27:42.852Z,99088.32
2019-05-07T14:30:13.135Z,99093.71
2019-05-07T14:33:06.103Z,99097.22
2019-05-07T14:35:46.139Z,99117.39
2019-05-07T14:38:42.489Z,99124.64
2019-05-07T14:41:12.991Z,99110.93
2019-05-07T14:43:52.342Z,99123.52
2019-05-07T14:46:22.030Z,99125.97
2019-05-07T14:48:52.125Z,99132.02
2019-05-07T14:51:22.160Z,99131.62
2019-05-07T14:53:51.970Z,99147.59
2019-05-07T14:56:23.191Z,99150.70
2019-05-07T14:58:52.766Z,99138.79
2019-05-07T15:01:22.505Z,99134.06
2019-05-07T15:03:52.036Z,99150.35
2019-05-07T15:06:21.963Z,99151.20
2019-05-07T15:08:52.196Z,99151.67
2019-05-07T15:11:21.925Z,99158.67
2019-05-07T15:13:52.204Z,99162.23
2019-05-07T15:16:22.523Z,99172.73
2019-05-07T15:18:53.900Z,99179.13
2019-05-07T15:21:23.747Z,99177.42
2019-05-07T15:23:54.900Z,99193.05
2019-05-07T15:26:24.580Z,99191.48
2019-05-07T15:29:00.795Z,99199.38
2019-05-07T15:32:05.708Z,99186.17
2019-05-07T15:34:35.252Z,99196.70
2019-05-07T15:37:04.825Z,99190.98
2019-05-07T15:39:34.216Z,99188.13
2019-05-07T15:42:03.895Z,99194.58
2019-05-07T15:44:33.385Z,99189.17
2019-05-07T15:47:06.977Z,99198.77
2019-05-07T15:49:36.368Z,99200.77
2019-05-07T15:52:12.429Z,99208.71
2019-05-07T15:54:43.015Z,99213.36
2019-05-07T15:57:15.328Z,99210.72
2019-05-07T15:59:44.735Z,99199.48
2019-05-07T16:02:28.982Z,99199.19
2019-05-07T16:04:58.395Z,99211.87
2019-05-07T16:07:27.806Z,99220.00
2019-05-07T16:09:57.329Z,99220.38
2019-05-07T16:12:26.808Z,99226.89
2019-05-07T16:14:56.176Z,99225.67
2019-05-07T16:17:47.778Z,99232.17
2019-05-07T16:20:17.871Z,99230.58
2019-05-07T16:22:54.837Z,99224.31
2019-05-07T16:25:22.482Z,99235.19
2019-05-07T16:27:52.724Z,99247.52
2019-05-07T16:30:23.258Z,99239.03
2019-05-07T16:32:55.351Z,99214.11
2019-05-07T16:35:23.850Z,99245.25
2019-05-07T16:37:53.371Z,99242.42
2019-05-07T16:40:23.078Z,99253.00
2019-05-07T16:42:52.583Z,99263.92
2019-05-07T16:45:22.359Z,99265.52
2019-05-07T16:47:52.216Z,99264.02
2019-05-07T16:50:22.556Z,99272.77
2019-05-07T16:52:52.567Z,99271.16
2019-05-07T16:55:23.775Z,99271.16
2019-05-07T16:58:08.114Z,99265.97
2019-05-07T17:00:46.743Z,99265.88
2019-05-07T17:03:20.880Z,99281.80
2019-05-07T17:05:52.283Z,99285.70
2019-05-07T17:08:35.724Z,99282.11
2019-05-07T17:11:05.104Z,99292.59
2019-05-07T17:13:34.527Z,99292.97
2019-05-07T17:16:04.073Z,99298.16
2019-05-07T17:18:33.579Z,99297.59
2019-05-07T17:21:02.999Z,99311.89
2019-05-07T17:23:43.710Z,99314.83
2019-05-07T17:26:04.928Z,99320.89
2019-05-07T17:28:34.518Z,99311.05
2019-05-07T17:31:04.096Z,99316.33
2019-05-07T17:33:34.897Z,99322.75
2019-05-07T17:36:04.419Z,99321.99
2019-05-07T17:38:33.935Z,99324.26
2019-05-07T17:41:10.784Z,99330.11
2019-05-07T17:43:35.834Z,99323.69
2019-05-07T17:46:05.436Z,99336.80
2019-05-07T17:48:34.894Z,99336.89
2019-05-07T17:51:23.437Z,99344.97
2019-05-07T17:53:59.420Z,99350.81
2019-05-07T17:56:24.835Z,99348.41
2019-05-07T17:58:54.293Z,99353.70
2019-05-07T18:01:32.786Z,99356.44
2019-05-07T18:04:02.943Z,99361.47
2019-05-07T18:06:32.695Z,99363.80
2019-05-07T18:09:02.973Z,99370.78
2019-05-07T18:11:32.563Z,99374.69
2019-05-07T18:14:03.787Z,99375.91
2019-05-07T18:17:02.117Z,99373.36
2019-05-07T18:19:33.100Z,99381.91
2019-05-07T18:22:02.806Z,99381.95
2019-05-07T18:24:32.670Z,99387.15
2019-05-07T18:27:03.220Z,99395.08
2019-05-07T18:29:32.726Z,99399.80
2019-05-07T18:32:03.190Z,99407.55
2019-05-07T18:34:32.913Z,99389.61
2019-05-07T18:37:02.486Z,99404.05
2019-05-07T18:39:32.447Z,99402.35
2019-05-07T18:42:02.772Z,99413.77
2019-05-07T18:44:32.356Z,99413.39
2019-05-07T18:47:02.460Z,99411.60
2019-05-07T18:49:32.092Z,99419.84
2019-05-07T18:52:02.874Z,99423.81
2019-05-07T18:54:32.662Z,99419.06
2019-05-07T18:57:02.409Z,99418.05
2019-05-07T18:59:33.606Z,99424.95
2019-05-07T19:02:03.499Z,99424.95
2019-05-07T19:04:33.071Z,99428.54
2019-05-07T19:07:02.714Z,99427.59
2019-05-07T19:09:32.476Z,99432.50
2019-05-07T19:12:02.454Z,99432.88
2019-05-07T19:14:33.325Z,99435.52
2019-05-07T19:17:03.298Z,99442.42
2019-05-07T19:19:32.979Z,99431.66
2019-05-07T19:22:02.476Z,99430.28
2019-05-07T19:24:44.645Z,99435.39
2019-05-07T19:27:03.149Z,99433.30
2019-05-07T19:29:32.827Z,99439.44
2019-05-07T19:32:03.162Z,99430.81
2019-05-07T19:34:33.192Z,99436.95
2019-05-07T19:37:02.730Z,99436.57
2019-05-07T19:39:32.588Z,99438.36
2019-05-07T19:42:02.726Z,99442.17
2019-05-07T19:44:32.219Z,99441.77
2019-05-07T19:47:02.099Z,99438.13
2019-05-07T19:49:32.491Z,99437.05
2019-05-07T19:52:02.042Z,99432.52
2019-05-07T19:54:32.423Z,99449.79
2019-05-07T19:57:02.696Z,99439.53
2019-05-07T19:59:32.774Z,99440.30
2019-05-07T20:02:04.009Z,99444.64
2019-05-07T20:04:33.534Z,99437.27
2019-05-07T20:07:03.007Z,99442.56
2019-05-07T20:09:34.938Z,99437.65
2019-05-07T20:12:07.769Z,99441.43
2019-05-07T20:14:35.738Z,99438.74
2019-05-07T20:17:05.168Z,99444.41
2019-05-07T20:19:34.569Z,99443.56
2019-05-07T20:22:04.054Z,99435.39
2019-05-07T20:24:33.566Z,99452.43
2019-05-07T20:27:03.192Z,99444.02
2019-05-07T20:29:32.623Z,99448.92
2019-05-07T20:32:02.193Z,99454.27
2019-05-07T20:34:33.233Z,99448.31
2019-05-07T20:37:03.379Z,99456.33
2019-05-07T20:39:33.076Z,99448.20
2019-05-07T20:42:03.161Z,99445.33
2019-05-07T20:44:32.789Z,99445.13
2019-05-07T20:47:02.212Z,99452.67
2019-05-07T20:49:32.158Z,99445.36
2019-05-07T20:52:01.874Z,99448.27
2019-05-07T20:54:46.135Z,99447.16
2019-05-07T20:57:18.682Z,99446.77
2019-05-07T20:59:48.135Z,99441.95
2019-05-07T21:02:17.661Z,99438.09
2019-05-07T21:04:47.244Z,99441.48
2019-05-07T21:07:16.628Z,99450.16
2019-05-07T21:09:46.155Z,99453.08
2019-05-07T21:12:15.657Z,99454.58
2019-05-07T21:14:45.155Z,99450.53
2019-05-07T21:17:14.559Z,99450.53
2019-05-07T21:19:44.069Z,99454.96
2019-05-07T21:22:13.588Z,99459.48
2019-05-07T21:24:43.054Z,99466.55
2019-05-07T21:27:12.541Z,99456.46
2019-05-07T21:29:42.321Z,99460.34
2019-05-07T21:32:12.529Z,99463.65
2019-05-07T21:34:42.437Z,99464.80
2019-05-07T21:37:12.683Z,99460.06
2019-05-07T21:39:42.564Z,99458.19
2019-05-07T21:42:14.201Z,99463.09
2019-05-07T21:44:43.187Z,99462.06
2019-05-07T21:47:12.867Z,99462.30
2019-05-07T21:49:43.012Z,99458.42
2019-05-07T21:52:12.848Z,99446.06
2019-05-07T21:54:57.898Z,99460.51
2019-05-07T21:57:41.021Z,99460.51
2019-05-07T22:00:26.591Z,99460.03
2019-05-07T22:02:56.266Z,99461.83
2019-05-07T22:05:25.854Z,99453.81
2019-05-07T22:07:55.273Z,99458.06
2019-05-07T22:10:24.677Z,99457.30
2019-05-07T22:12:54.566Z,99465.52
2019-05-07T22:15:24.429Z,99457.50
2019-05-07T22:17:53.821Z,99460.00
2019-05-07T22:20:23.768Z,99455.95
2019-05-07T22:22:59.793Z,99455.30
2019-05-07T22:25:38.839Z,99458.32
2019-05-07T22:28:08.272Z,99456.41
2019-05-07T22:30:45.615Z,99461.14
2019-05-07T22:33:22.415Z,99455.09
2019-05-07T22:35:53.248Z,99458.97
2019-05-07T22:38:22.866Z,99458.50
2019-05-07T22:40:52.359Z,99453.13
2019-05-07T22:43:22.569Z,99453.97
2019-05-07T22:45:52.163Z,99453.97
2019-05-07T22:48:22.970Z,99451.80
2019-05-07T22:50:52.541Z,99452.47
2019-05-07T22:53:22.139Z,99455.11
2019-05-07T22:55:52.557Z,99458.37
2019-05-07T22:58:32.571Z,99465.16
2019-05-07T23:01:05.901Z,99461.81
2019-05-07T23:03:35.391Z,99453.88
2019-05-07T23:06:07.988Z,99466.09
2019-05-07T23:08:39.403Z,99463.98
2019-05-07T23:11:09.149Z,99468.04
2019-05-07T23:13:38.658Z,99466.72
2019-05-07T23:16:08.351Z,99467.56
2019-05-07T23:18:37.860Z,99463.69
2019-05-07T23:21:07.451Z,99462.84
2019-05-07T23:23:36.887Z,99465.20
2019-05-07T23:26:06.301Z,99470.77
2019-05-07T23:28:35.773Z,99458.88
2019-05-07T23:31:05.286Z,99466.16
2019-05-07T23:33:34.669Z,99466.63
2019-05-07T23:36:04.218Z,99464.30
2019-05-07T23:38:33.709Z,99467.19
2019-05-07T23:41:32.969Z,99466.52
2019-05-07T23:44:19.268Z,99468.52
2019-05-07T23:46:48.819Z,99470.68
2019-05-07T23:49:18.309Z,99462.64
2019-05-07T23:51:47.822Z,99466.42
2019-05-07T23:54:17.234Z,99466.63
2019-05-07T23:56:46.624Z,99471.06
2019-05-07T23:59:16.108Z,99468.89
